createdAt,value
2023-02-14T00:00:12.943Z,995.63
2023-02-14T00:00:28.659Z,995.63
2023-02-14T00:01:00.760Z,995.63
2023-02-14T00:01:44.699Z,995.63
2023-02-14T00:02:16.354Z,995.63
2023-02-14T00:02:48.458Z,995.63
2023-02-14T00:03:20.635Z,995.33
2023-02-14T00:03:52.482Z,995.33
2023-02-14T00:04:24.478Z,995.53
2023-02-14T00:04:56.382Z,995.53
2023-02-14T00:05:28.499Z,995.63
2023-02-14T00:06:00.424Z,995.63
2023-02-14T00:06:32.516Z,995.63
2023-02-14T00:07:04.613Z,995.63
2023-02-14T00:07:36.378Z,995.43
2023-02-14T00:08:08.223Z,995.43
2023-02-14T00:08:40.112Z,995.33
2023-02-14T00:09:12.325Z,995.33
2023-02-14T00:09:28.207Z,995.43
2023-02-14T00:10:12.549Z,995.43
2023-02-14T00:10:44.270Z,995.63
2023-02-14T00:11:16.054Z,995.63
2023-02-14T00:11:48.074Z,995.12
2023-02-14T00:12:20.109Z,995.33
2023-02-14T00:12:52.026Z,995.33
2023-02-14T00:13:23.854Z,995.33
2023-02-14T00:13:55.996Z,995.33
2023-02-14T00:14:12.336Z,995.33
2023-02-14T00:14:43.957Z,995.43
2023-02-14T00:15:00.098Z,995.43
2023-02-14T00:15:32.399Z,995.53
2023-02-14T00:16:04.196Z,995.53
2023-02-14T00:16:36.030Z,995.33
2023-02-14T00:17:07.923Z,995.33
2023-02-14T00:17:39.578Z,995.43
2023-02-14T00:18:11.967Z,995.43
2023-02-14T00:18:27.841Z,995.43
2023-02-14T00:18:59.803Z,995.43
2023-02-14T00:19:43.886Z,995.53
2023-02-14T00:20:15.847Z,995.53
2023-02-14T00:20:47.658Z,995.43
2023-02-14T00:21:19.717Z,995.43
2023-02-14T00:21:51.748Z,995.43
2023-02-14T00:22:23.520Z,995.63
2023-02-14T00:22:55.599Z,995.63
2023-02-14T00:23:11.901Z,995.63
2023-02-14T00:23:55.803Z,995.43
2023-02-14T00:24:27.524Z,995.33
2023-02-14T00:24:59.510Z,995.33
2023-02-14T00:25:31.767Z,995.53
2023-02-14T00:26:04.106Z,995.53
2023-02-14T00:26:35.705Z,995.33
2023-02-14T00:27:07.255Z,995.33
2023-02-14T00:27:39.377Z,995.33
2023-02-14T00:28:11.563Z,995.33
2023-02-14T00:28:43.445Z,995.33
2023-02-14T00:29:15.372Z,995.33
2023-02-14T00:29:47.385Z,995.43
2023-02-14T00:30:19.857Z,995.43
2023-02-14T00:30:51.605Z,995.53
2023-02-14T00:31:23.275Z,995.43
2023-02-14T00:31:55.245Z,995.43
2023-02-14T00:32:11.743Z,995.43
2023-02-14T00:32:43.010Z,995.53
2023-02-14T00:32:59.264Z,995.53
2023-02-14T00:33:31.120Z,995.53
2023-02-14T00:34:03.973Z,995.53
2023-02-14T00:34:35.191Z,995.43
2023-02-14T00:35:07.319Z,995.43
2023-02-14T00:35:38.964Z,995.33
2023-02-14T00:36:11.073Z,995.33
2023-02-14T00:36:27.133Z,995.43
2023-02-14T00:36:58.964Z,995.43
2023-02-14T00:37:42.984Z,995.22
2023-02-14T00:38:14.892Z,995.22
2023-02-14T00:38:46.957Z,995.33
2023-02-14T00:39:18.806Z,995.33
2023-02-14T00:39:51.029Z,995.43
2023-02-14T00:40:22.969Z,995.63
2023-02-14T00:40:54.813Z,995.63
2023-02-14T00:41:10.992Z,995.63
2023-02-14T00:41:54.846Z,995.33
2023-02-14T00:42:26.861Z,995.43
2023-02-14T00:42:58.652Z,995.43
2023-02-14T00:43:30.663Z,995.33
2023-02-14T00:44:03.440Z,995.33
2023-02-14T00:44:34.976Z,995.33
2023-02-14T00:45:07.566Z,995.33
2023-02-14T00:45:38.644Z,995.43
2023-02-14T00:46:10.725Z,995.43
2023-02-14T00:46:42.820Z,995.43
2023-02-14T00:47:14.668Z,995.43
2023-02-14T00:47:46.489Z,995.43
2023-02-14T00:48:18.588Z,995.43
2023-02-14T00:48:50.578Z,995.22
2023-02-14T00:49:22.442Z,995.33
2023-02-14T00:49:54.488Z,995.33
2023-02-14T00:50:26.869Z,995.43
2023-02-14T00:50:58.708Z,995.43
2023-02-14T00:51:30.308Z,995.43
2023-02-14T00:52:02.977Z,995.43
2023-02-14T00:52:34.330Z,995.53
2023-02-14T00:53:06.513Z,995.53
2023-02-14T00:53:38.193Z,995.53
2023-02-14T00:54:10.241Z,995.53
2023-02-14T00:54:42.567Z,995.43
2023-02-14T00:55:14.586Z,995.43
2023-02-14T00:55:46.106Z,995.43
2023-02-14T00:56:18.120Z,995.43
2023-02-14T00:56:50.311Z,995.43
2023-02-14T00:57:22.204Z,995.33
2023-02-14T00:57:53.952Z,995.33
2023-02-14T00:58:10.096Z,995.33
2023-02-14T00:58:53.988Z,995.53
2023-02-14T00:59:26.084Z,995.33
2023-02-14T00:59:58.015Z,995.33
2023-02-14T01:00:30.429Z,995.63
2023-02-14T01:01:02.654Z,995.63
2023-02-14T01:01:33.999Z,995.33
2023-02-14T01:02:06.404Z,995.33
2023-02-14T01:02:37.848Z,995.53
2023-02-14T01:03:09.933Z,995.53
2023-02-14T01:03:25.950Z,995.43
2023-02-14T01:04:09.953Z,995.43
2023-02-14T01:04:42.225Z,995.53
2023-02-14T01:05:14.148Z,995.53
2023-02-14T01:05:45.995Z,995.33
2023-02-14T01:06:17.787Z,995.33
2023-02-14T01:06:49.931Z,995.43
2023-02-14T01:07:21.837Z,995.33
2023-02-14T01:07:53.638Z,995.33
2023-02-14T01:08:25.823Z,995.33
2023-02-14T01:08:57.893Z,995.33
2023-02-14T01:09:29.592Z,995.33
2023-02-14T01:10:02.473Z,995.33
2023-02-14T01:10:33.685Z,995.43
2023-02-14T01:11:05.953Z,995.43
2023-02-14T01:11:37.380Z,995.53
2023-02-14T01:12:09.630Z,995.53
2023-02-14T01:12:25.640Z,995.22
2023-02-14T01:12:57.470Z,995.22
2023-02-14T01:13:41.803Z,995.53
2023-02-14T01:14:13.326Z,995.53
2023-02-14T01:14:45.575Z,995.53
2023-02-14T01:15:18.019Z,995.53
2023-02-14T01:15:49.483Z,995.53
2023-02-14T01:16:21.635Z,995.53
2023-02-14T01:16:53.512Z,995.53
2023-02-14T01:17:25.438Z,995.33
2023-02-14T01:17:57.466Z,995.33
2023-02-14T01:18:29.250Z,995.53
2023-02-14T01:19:01.425Z,995.53
2023-02-14T01:19:33.308Z,995.33
2023-02-14T01:20:06.000Z,995.33
2023-02-14T01:20:37.105Z,995.22
2023-02-14T01:21:09.179Z,995.22
2023-02-14T01:21:41.322Z,995.53
2023-02-14T01:22:13.203Z,995.53
2023-02-14T01:22:45.276Z,995.53
2023-02-14T01:23:17.063Z,995.53
2023-02-14T01:23:49.108Z,995.63
2023-02-14T01:24:21.359Z,995.43
2023-02-14T01:24:52.942Z,995.43
2023-02-14T01:25:09.366Z,995.43
2023-02-14T01:25:40.917Z,995.43
2023-02-14T01:25:57.330Z,995.43
2023-02-14T01:26:29.175Z,995.63
2023-02-14T01:27:01.068Z,995.63
2023-02-14T01:27:32.791Z,995.73
2023-02-14T01:28:05.284Z,995.73
2023-02-14T01:28:37.222Z,995.73
2023-02-14T01:29:08.701Z,995.73
2023-02-14T01:29:24.998Z,995.43
2023-02-14T01:29:57.037Z,995.43
2023-02-14T01:30:41.373Z,995.22
2023-02-14T01:31:12.963Z,995.22
2023-02-14T01:31:44.974Z,995.43
2023-02-14T01:32:16.785Z,995.43
2023-02-14T01:32:48.619Z,995.43
2023-02-14T01:33:20.906Z,995.33
2023-02-14T01:33:52.676Z,995.33
2023-02-14T01:34:08.773Z,995.33
2023-02-14T01:34:52.603Z,995.43
2023-02-14T01:35:24.934Z,995.33
2023-02-14T01:35:56.794Z,995.33
2023-02-14T01:36:28.507Z,995.53
2023-02-14T01:37:00.503Z,995.53
2023-02-14T01:37:32.688Z,995.43
2023-02-14T01:38:05.003Z,995.43
2023-02-14T01:38:36.519Z,995.43
2023-02-14T01:39:08.408Z,995.43
2023-02-14T01:39:40.475Z,995.43
2023-02-14T01:40:12.786Z,995.43
2023-02-14T01:40:44.237Z,995.53
2023-02-14T01:41:16.368Z,995.53
2023-02-14T01:41:48.351Z,995.22
2023-02-14T01:42:20.546Z,995.12
2023-02-14T01:42:52.347Z,995.12
2023-02-14T01:43:08.354Z,995.12
2023-02-14T01:43:40.266Z,995.43
2023-02-14T01:43:56.242Z,995.43
2023-02-14T01:44:28.229Z,995.22
2023-02-14T01:45:00.167Z,995.22
2023-02-14T01:45:32.625Z,995.22
2023-02-14T01:46:04.723Z,995.22
2023-02-14T01:46:36.258Z,995.43
2023-02-14T01:47:07.999Z,995.43
2023-02-14T01:47:24.257Z,995.43
2023-02-14T01:47:56.102Z,995.43
2023-02-14T01:48:40.107Z,995.33
2023-02-14T01:49:12.049Z,995.33
2023-02-14T01:49:43.932Z,995.22
2023-02-14T01:50:16.273Z,995.22
2023-02-14T01:50:47.961Z,995.22
2023-02-14T01:51:19.791Z,995.33
2023-02-14T01:51:52.017Z,995.33
2023-02-14T01:52:23.762Z,995.53
2023-02-14T01:52:55.840Z,995.53
2023-02-14T01:53:27.711Z,995.43
2023-02-14T01:53:59.775Z,995.43
2023-02-14T01:54:31.806Z,995.53
2023-02-14T01:55:04.386Z,995.53
2023-02-14T01:55:35.881Z,995.33
2023-02-14T01:56:07.618Z,995.33
2023-02-14T01:56:23.827Z,995.22
2023-02-14T01:57:07.645Z,995.22
2023-02-14T01:57:39.651Z,995.22
2023-02-14T01:58:11.547Z,995.22
2023-02-14T01:58:43.553Z,995.43
2023-02-14T01:59:15.626Z,995.43
2023-02-14T01:59:47.581Z,995.22
2023-02-14T02:00:19.936Z,995.22
2023-02-14T02:00:51.661Z,995.53
2023-02-14T02:01:23.445Z,995.33
2023-02-14T02:01:55.777Z,995.33
2023-02-14T02:02:27.600Z,995.12
2023-02-14T02:02:59.309Z,995.12
2023-02-14T02:03:15.566Z,995.12
2023-02-14T02:03:47.120Z,995.22
2023-02-14T02:04:31.517Z,995.33
2023-02-14T02:05:04.253Z,995.33
2023-02-14T02:05:35.351Z,995.22
2023-02-14T02:06:07.405Z,995.22
2023-02-14T02:06:39.321Z,995.43
2023-02-14T02:07:11.205Z,995.43
2023-02-14T02:07:43.092Z,995.12
2023-02-14T02:08:15.414Z,995.12
2023-02-14T02:08:47.164Z,995.33
2023-02-14T02:09:19.078Z,995.33
2023-02-14T02:09:51.249Z,995.22
2023-02-14T02:10:07.540Z,995.22
2023-02-14T02:10:51.406Z,995.12
2023-02-14T02:11:23.204Z,995.43
2023-02-14T02:11:54.993Z,995.43
2023-02-14T02:12:29.195Z,995.33
2023-02-14T02:12:58.971Z,995.33
2023-02-14T02:13:31.103Z,995.43
2023-02-14T02:14:03.283Z,995.43
2023-02-14T02:14:34.991Z,995.33
2023-02-14T02:15:08.181Z,995.33
2023-02-14T02:15:38.953Z,995.33
2023-02-14T02:16:10.914Z,995.33
2023-02-14T02:16:42.935Z,995.43
2023-02-14T02:17:14.982Z,995.43
2023-02-14T02:17:46.885Z,995.53
2023-02-14T02:18:18.726Z,995.53
2023-02-14T02:18:51.053Z,995.33
2023-02-14T02:19:22.889Z,995.22
2023-02-14T02:19:54.805Z,995.22
2023-02-14T02:20:26.960Z,995.33
2023-02-14T02:20:58.920Z,995.33
2023-02-14T02:21:30.709Z,995.12
2023-02-14T02:22:03.334Z,995.12
2023-02-14T02:22:34.539Z,995.33
2023-02-14T02:23:06.660Z,995.33
2023-02-14T02:23:38.589Z,995.12
2023-02-14T02:24:10.740Z,995.12
2023-02-14T02:24:42.576Z,995.22
2023-02-14T02:25:14.744Z,995.22
2023-02-14T02:25:46.558Z,995.33
2023-02-14T02:26:18.489Z,995.33
2023-02-14T02:26:50.295Z,995.22
2023-02-14T02:27:08.502Z,995.22
2023-02-14T02:27:50.379Z,995.12
2023-02-14T02:28:22.671Z,995.33
2023-02-14T02:28:54.408Z,995.33
2023-02-14T02:29:26.322Z,995.22
2023-02-14T02:29:58.332Z,995.22
2023-02-14T02:30:30.799Z,995.43
2023-02-14T02:31:03.097Z,995.43
2023-02-14T02:31:34.154Z,995.33
2023-02-14T02:32:06.432Z,995.33
2023-02-14T02:32:22.517Z,995.22
2023-02-14T02:33:06.476Z,995.22
2023-02-14T02:33:38.227Z,995.22
2023-02-14T02:34:09.994Z,995.22
2023-02-14T02:34:42.175Z,995.43
2023-02-14T02:35:14.373Z,995.43
2023-02-14T02:35:46.455Z,995.02
2023-02-14T02:36:17.860Z,995.02
2023-02-14T02:36:50.045Z,995.22
2023-02-14T02:37:22.265Z,995.22
2023-02-14T02:37:54.044Z,995.22
2023-02-14T02:38:25.983Z,995.12
2023-02-14T02:38:57.871Z,995.12
2023-02-14T02:39:29.948Z,995.33
2023-02-14T02:40:02.941Z,995.33
2023-02-14T02:40:33.810Z,995.33
2023-02-14T02:41:05.970Z,995.33
2023-02-14T02:41:37.972Z,995.22
2023-02-14T02:42:09.894Z,995.22
2023-02-14T02:42:41.830Z,995.22
2023-02-14T02:43:13.761Z,995.22
2023-02-14T02:43:46.071Z,995.33
2023-02-14T02:44:17.748Z,995.33
2023-02-14T02:44:49.594Z,995.12
2023-02-14T02:45:07.078Z,995.12
2023-02-14T02:45:49.708Z,995.43
2023-02-14T02:46:21.910Z,995.22
2023-02-14T02:46:53.644Z,995.22
2023-02-14T02:47:25.606Z,995.22
2023-02-14T02:47:57.580Z,995.22
2023-02-14T02:48:29.720Z,995.22
2023-02-14T02:49:02.006Z,995.22
2023-02-14T02:49:34.189Z,995.12
2023-02-14T02:50:06.062Z,995.12
2023-02-14T02:50:37.518Z,995.43
2023-02-14T02:51:09.587Z,995.43
2023-02-14T02:51:41.368Z,995.22
2023-02-14T02:52:13.336Z,995.22
2023-02-14T02:52:45.598Z,995.53
2023-02-14T02:53:17.382Z,995.53
2023-02-14T02:53:49.216Z,995.22
2023-02-14T02:54:05.695Z,995.22
2023-02-14T02:54:37.215Z,995.33
2023-02-14T02:54:53.361Z,995.33
2023-02-14T02:55:25.624Z,995.22
2023-02-14T02:55:57.114Z,995.22
2023-02-14T02:56:29.188Z,995.22
2023-02-14T02:57:01.545Z,995.22
2023-02-14T02:57:33.244Z,995.22
2023-02-14T02:58:05.594Z,995.22
2023-02-14T02:58:21.459Z,995.33
2023-02-14T02:58:53.028Z,995.33
2023-02-14T02:59:37.130Z,995.22
2023-02-14T03:00:10.076Z,995.22
2023-02-14T03:00:40.909Z,995.33
2023-02-14T03:01:12.985Z,995.33
2023-02-14T03:01:45.170Z,995.33
2023-02-14T03:02:17.011Z,995.33
2023-02-14T03:02:48.819Z,995.33
2023-02-14T03:03:20.876Z,995.33
2023-02-14T03:03:53.203Z,995.33
2023-02-14T03:04:25.087Z,995.12
2023-02-14T03:04:56.735Z,995.12
2023-02-14T03:05:28.917Z,995.22
2023-02-14T03:06:01.004Z,995.22
2023-02-14T03:06:32.775Z,995.33
2023-02-14T03:07:05.173Z,995.33
2023-02-14T03:07:20.847Z,995.02
2023-02-14T03:08:05.219Z,995.02
2023-02-14T03:08:36.855Z,995.22
2023-02-14T03:09:08.644Z,995.22
2023-02-14T03:09:40.600Z,995.12
2023-02-14T03:10:12.854Z,995.12
2023-02-14T03:10:44.563Z,995.33
2023-02-14T03:11:16.604Z,995.33
2023-02-14T03:11:48.548Z,995.12
2023-02-14T03:12:05.140Z,995.12
2023-02-14T03:12:36.670Z,995.22
2023-02-14T03:13:20.558Z,995.43
2023-02-14T03:13:52.640Z,995.43
2023-02-14T03:14:24.223Z,995.53
2023-02-14T03:14:56.437Z,995.53
2023-02-14T03:15:28.791Z,995.22
2023-02-14T03:16:00.544Z,995.22
2023-02-14T03:16:32.310Z,995.33
2023-02-14T03:17:04.698Z,995.33
2023-02-14T03:17:36.511Z,995.22
2023-02-14T03:18:08.323Z,995.22
2023-02-14T03:18:40.146Z,995.22
2023-02-14T03:19:12.227Z,995.22
2023-02-14T03:19:44.147Z,995.33
2023-02-14T03:20:16.490Z,995.33
2023-02-14T03:20:48.107Z,995.22
2023-02-14T03:21:04.341Z,995.22
2023-02-14T03:21:48.060Z,995.12
2023-02-14T03:22:20.131Z,995.22
2023-02-14T03:22:52.195Z,995.22
2023-02-14T03:23:23.839Z,995.33
2023-02-14T03:23:56.115Z,995.33
2023-02-14T03:24:28.061Z,995.22
2023-02-14T03:25:00.104Z,995.22
2023-02-14T03:25:32.109Z,995.12
2023-02-14T03:26:04.505Z,995.12
2023-02-14T03:26:36.088Z,995.12
2023-02-14T03:27:07.962Z,995.12
2023-02-14T03:27:39.704Z,995.43
2023-02-14T03:28:11.923Z,995.43
2023-02-14T03:28:43.732Z,995.33
2023-02-14T03:29:15.918Z,995.33
2023-02-14T03:29:47.713Z,995.12
2023-02-14T03:30:06.594Z,995.12
2023-02-14T03:30:35.829Z,995.33
2023-02-14T03:30:52.354Z,995.33
2023-02-14T03:31:23.881Z,995.33
2023-02-14T03:31:55.752Z,995.33
2023-02-14T03:32:27.622Z,995.43
2023-02-14T03:32:59.693Z,995.43
2023-02-14T03:33:31.700Z,995.22
2023-02-14T03:34:04.006Z,995.22
2023-02-14T03:34:19.573Z,995.22
2023-02-14T03:34:51.846Z,995.43
2023-02-14T03:35:35.979Z,995.33
2023-02-14T03:36:07.595Z,995.33
2023-02-14T03:36:39.413Z,995.22
2023-02-14T03:37:11.616Z,995.22
2023-02-14T03:37:43.426Z,995.12
2023-02-14T03:38:15.586Z,995.12
2023-02-14T03:38:47.331Z,995.43
2023-02-14T03:39:19.313Z,995.43
2023-02-14T03:39:51.513Z,995.43
2023-02-14T03:40:23.665Z,995.22
2023-02-14T03:40:55.450Z,995.22
2023-02-14T03:41:27.216Z,995.22
2023-02-14T03:41:59.321Z,995.22
2023-02-14T03:42:31.348Z,995.33
2023-02-14T03:43:03.635Z,995.33
2023-02-14T03:43:19.280Z,995.33
2023-02-14T03:44:03.935Z,995.33
2023-02-14T03:44:35.456Z,995.33
2023-02-14T03:45:08.157Z,995.33
2023-02-14T03:45:39.007Z,995.43
2023-02-14T03:46:11.105Z,995.43
2023-02-14T03:46:43.160Z,995.33
2023-02-14T03:47:15.169Z,995.33
2023-02-14T03:47:46.926Z,995.22
2023-02-14T03:48:04.062Z,995.22
2023-02-14T03:48:35.132Z,995.12
2023-02-14T03:48:51.027Z,995.12
2023-02-14T03:49:23.151Z,995.22
2023-02-14T03:49:55.064Z,995.22
2023-02-14T03:50:27.157Z,995.33
2023-02-14T03:50:59.231Z,995.33
2023-02-14T03:51:31.124Z,995.22
2023-02-14T03:52:03.569Z,995.22
2023-02-14T03:52:18.972Z,995.22
2023-02-14T03:52:50.980Z,995.12
2023-02-14T03:53:34.913Z,995.02
2023-02-14T03:54:06.981Z,995.02
2023-02-14T03:54:38.624Z,995.33
2023-02-14T03:55:10.963Z,995.33
2023-02-14T03:55:42.904Z,995.22
2023-02-14T03:56:14.917Z,995.22
2023-02-14T03:56:46.617Z,995.02
2023-02-14T03:57:03.483Z,995.02
2023-02-14T03:57:46.620Z,995.22
2023-02-14T03:58:18.622Z,995.22
2023-02-14T03:58:50.515Z,995.12
2023-02-14T03:59:22.621Z,995.22
2023-02-14T03:59:54.487Z,995.22
2023-02-14T04:00:27.020Z,995.02
2023-02-14T04:01:00.041Z,995.02
2023-02-14T04:01:30.675Z,995.22
2023-02-14T04:02:03.302Z,995.22
2023-02-14T04:02:34.502Z,995.22
2023-02-14T04:03:06.399Z,995.22
2023-02-14T04:03:38.581Z,994.92
2023-02-14T04:04:10.413Z,994.92
2023-02-14T04:04:42.414Z,995.33
2023-02-14T04:05:14.520Z,995.33
2023-02-14T04:05:46.317Z,995.12
2023-02-14T04:06:03.264Z,995.12
2023-02-14T04:06:34.360Z,995.22
2023-02-14T04:06:50.495Z,995.22
2023-02-14T04:07:22.241Z,995.12
2023-02-14T04:07:54.207Z,995.12
2023-02-14T04:08:10.488Z,995.12
2023-02-14T04:08:42.144Z,995.02
2023-02-14T04:09:26.714Z,995.22
2023-02-14T04:09:58.032Z,995.22
2023-02-14T04:10:30.427Z,995.12
2023-02-14T04:11:02.930Z,995.12
2023-02-14T04:11:34.250Z,995.12
2023-02-14T04:12:06.204Z,995.12
2023-02-14T04:12:38.318Z,995.22
2023-02-14T04:13:09.984Z,995.22
2023-02-14T04:13:42.248Z,995.02
2023-02-14T04:14:13.928Z,995.02
2023-02-14T04:14:45.927Z,995.12
2023-02-14T04:15:05.355Z,995.12
2023-02-14T04:15:46.006Z,995.12
2023-02-14T04:16:17.996Z,995.12
2023-02-14T04:16:49.695Z,995.22
2023-02-14T04:17:21.986Z,995.02
2023-02-14T04:17:53.843Z,995.02
2023-02-14T04:18:25.840Z,995.12
2023-02-14T04:18:57.572Z,995.12
2023-02-14T04:19:29.790Z,995.22
2023-02-14T04:20:02.899Z,995.22
2023-02-14T04:20:33.827Z,995.22
2023-02-14T04:21:05.819Z,995.22
2023-02-14T04:21:37.571Z,995.12
2023-02-14T04:22:09.526Z,995.12
2023-02-14T04:22:41.684Z,995.12
2023-02-14T04:23:13.482Z,995.12
2023-02-14T04:23:45.548Z,995.02
2023-02-14T04:24:02.303Z,995.02
2023-02-14T04:24:33.474Z,994.92
2023-02-14T04:24:49.533Z,994.92
2023-02-14T04:25:21.650Z,995.33
2023-02-14T04:25:53.386Z,995.33
2023-02-14T04:26:25.545Z,995.02
2023-02-14T04:26:57.403Z,995.02
2023-02-14T04:27:29.289Z,995.02
2023-02-14T04:28:01.721Z,995.02
2023-02-14T04:28:33.329Z,995.12
2023-02-14T04:29:05.767Z,995.12
2023-02-14T04:29:37.269Z,995.02
2023-02-14T04:30:10.458Z,995.02
2023-02-14T04:30:41.291Z,995.12
2023-02-14T04:31:13.341Z,995.12
2023-02-14T04:31:45.476Z,995.02
2023-02-14T04:32:01.868Z,995.02
2023-02-14T04:32:45.198Z,995.02
2023-02-14T04:33:02.079Z,995.02
2023-02-14T04:33:45.232Z,995.02
2023-02-14T04:34:17.212Z,995.02
2023-02-14T04:34:48.898Z,995.02
2023-02-14T04:35:21.370Z,995.02
2023-02-14T04:35:53.222Z,995.02
2023-02-14T04:36:25.177Z,994.92
2023-02-14T04:36:57.184Z,994.92
2023-02-14T04:37:28.937Z,995.12
2023-02-14T04:38:01.012Z,995.12
2023-02-14T04:38:33.109Z,995.02
2023-02-14T04:39:05.326Z,995.02
2023-02-14T04:39:36.930Z,995.02
2023-02-14T04:40:09.190Z,995.02
2023-02-14T04:40:41.000Z,995.02
2023-02-14T04:41:12.682Z,995.02
2023-02-14T04:41:44.800Z,995.02
2023-02-14T04:42:16.761Z,995.02
2023-02-14T04:42:48.760Z,994.92
2023-02-14T04:43:20.700Z,994.92
2023-02-14T04:43:52.808Z,994.92
2023-02-14T04:44:24.649Z,994.92
2023-02-14T04:44:56.781Z,994.92
2023-02-14T04:45:28.824Z,994.92
2023-02-14T04:46:00.712Z,994.92
2023-02-14T04:46:32.704Z,995.02
2023-02-14T04:47:04.773Z,995.02
2023-02-14T04:47:36.613Z,994.92
2023-02-14T04:48:08.504Z,994.92
2023-02-14T04:48:40.814Z,994.82
2023-02-14T04:49:12.536Z,994.82
2023-02-14T04:49:44.378Z,994.72
2023-02-14T04:50:00.834Z,994.72
2023-02-14T04:50:44.399Z,995.02
2023-02-14T04:51:16.377Z,995.02
2023-02-14T04:51:48.428Z,995.02
2023-02-14T04:52:20.262Z,995.02
2023-02-14T04:52:52.473Z,995.02
2023-02-14T04:53:24.470Z,994.92
2023-02-14T04:53:56.533Z,994.92
2023-02-14T04:54:28.169Z,995.22
2023-02-14T04:55:00.756Z,995.22
2023-02-14T04:55:32.435Z,995.02
2023-02-14T04:56:04.639Z,995.02
2023-02-14T04:56:36.220Z,995.22
2023-02-14T04:57:08.158Z,995.22
2023-02-14T04:57:40.092Z,995.02
2023-02-14T04:58:12.410Z,995.02
2023-02-14T04:58:43.980Z,994.82
2023-02-14T04:59:16.069Z,994.82
2023-02-14T04:59:48.102Z,994.82
2023-02-14T05:00:20.537Z,995.02
2023-02-14T05:00:52.180Z,995.02
2023-02-14T05:01:24.114Z,994.92
2023-02-14T05:01:56.159Z,994.92
2023-02-14T05:02:27.973Z,995.02
2023-02-14T05:02:59.822Z,995.02
2023-02-14T05:03:31.913Z,995.12
2023-02-14T05:04:04.330Z,995.12
2023-02-14T05:04:36.017Z,994.92
2023-02-14T05:05:08.195Z,994.92
2023-02-14T05:05:39.725Z,994.92
2023-02-14T05:06:11.947Z,994.92
2023-02-14T05:06:43.944Z,995.02
2023-02-14T05:07:15.746Z,995.02
2023-02-14T05:07:47.901Z,995.12
2023-02-14T05:08:19.746Z,995.12
2023-02-14T05:08:51.776Z,995.02
2023-02-14T05:09:23.594Z,994.92
2023-02-14T05:09:55.672Z,994.92
2023-02-14T05:10:27.790Z,995.02
2023-02-14T05:10:59.988Z,995.02
2023-02-14T05:11:31.534Z,994.92
2023-02-14T05:11:47.578Z,994.92
2023-02-14T05:12:19.657Z,994.92
2023-02-14T05:13:04.217Z,994.92
2023-02-14T05:13:35.714Z,995.02
2023-02-14T05:14:07.427Z,995.02
2023-02-14T05:14:39.492Z,994.92
2023-02-14T05:15:12.342Z,994.92
2023-02-14T05:15:43.392Z,994.82
2023-02-14T05:16:15.537Z,994.82
2023-02-14T05:16:31.670Z,994.92
2023-02-14T05:17:15.560Z,994.92
2023-02-14T05:17:47.268Z,995.02
2023-02-14T05:18:19.292Z,995.02
2023-02-14T05:18:51.409Z,995.12
2023-02-14T05:19:23.389Z,995.02
2023-02-14T05:19:55.450Z,995.02
2023-02-14T05:20:27.627Z,994.92
2023-02-14T05:20:59.317Z,994.92
2023-02-14T05:21:15.401Z,994.92
2023-02-14T05:21:47.318Z,995.12
2023-02-14T05:22:31.243Z,994.92
2023-02-14T05:23:03.869Z,994.92
2023-02-14T05:23:35.196Z,994.92
2023-02-14T05:24:07.050Z,994.92
2023-02-14T05:24:39.130Z,994.92
2023-02-14T05:25:11.352Z,994.92
2023-02-14T05:25:42.965Z,995.12
2023-02-14T05:25:59.436Z,995.12
2023-02-14T05:26:42.844Z,995.02
2023-02-14T05:27:15.069Z,995.02
2023-02-14T05:27:46.707Z,995.12
2023-02-14T05:28:18.828Z,995.12
2023-02-14T05:28:50.989Z,995.02
2023-02-14T05:29:23.010Z,995.02
2023-02-14T05:29:54.797Z,995.02
2023-02-14T05:30:27.262Z,995.02
2023-02-14T05:30:59.217Z,995.02
2023-02-14T05:31:31.013Z,995.02
2023-02-14T05:32:03.498Z,995.02
2023-02-14T05:32:34.720Z,995.12
2023-02-14T05:33:06.844Z,995.12
2023-02-14T05:33:38.683Z,995.12
2023-02-14T05:34:10.504Z,995.12
2023-02-14T05:34:42.632Z,994.82
2023-02-14T05:35:00.944Z,994.82
2023-02-14T05:35:30.886Z,994.92
2023-02-14T05:35:46.567Z,994.92
2023-02-14T05:36:18.465Z,994.92
2023-02-14T05:36:50.388Z,995.02
2023-02-14T05:37:22.459Z,995.02
2023-02-14T05:37:54.503Z,995.02
2023-02-14T05:38:26.371Z,994.72
2023-02-14T05:38:58.345Z,994.72
2023-02-14T05:39:14.577Z,994.72
2023-02-14T05:39:46.214Z,994.92
2023-02-14T05:40:30.815Z,994.92
2023-02-14T05:41:03.153Z,994.92
2023-02-14T05:41:34.257Z,995.02
2023-02-14T05:42:06.555Z,995.02
2023-02-14T05:42:38.415Z,995.02
2023-02-14T05:43:10.097Z,995.02
2023-02-14T05:43:42.332Z,995.02
2023-02-14T05:43:58.303Z,995.02
2023-02-14T05:44:42.256Z,994.72
2023-02-14T05:45:15.536Z,994.72
2023-02-14T05:45:46.046Z,994.92
2023-02-14T05:46:18.081Z,994.92
2023-02-14T05:46:50.010Z,995.12
2023-02-14T05:47:22.156Z,995.02
2023-02-14T05:47:53.904Z,995.02
2023-02-14T05:48:26.074Z,995.02
2023-02-14T05:48:58.067Z,995.02
2023-02-14T05:49:30.042Z,995.12
2023-02-14T05:50:02.726Z,995.12
2023-02-14T05:50:33.860Z,995.12
2023-02-14T05:51:06.017Z,995.12
2023-02-14T05:51:37.994Z,995.12
2023-02-14T05:52:09.825Z,995.12
2023-02-14T05:52:42.034Z,994.92
2023-02-14T05:52:57.968Z,994.92
2023-02-14T05:53:29.753Z,995.02
2023-02-14T05:53:45.977Z,995.02
2023-02-14T05:54:17.632Z,995.02
2023-02-14T05:54:49.618Z,995.02
2023-02-14T05:55:22.208Z,995.12
2023-02-14T05:55:53.697Z,995.12
2023-02-14T05:56:25.594Z,995.02
2023-02-14T05:56:57.637Z,995.02
2023-02-14T05:57:13.699Z,995.02
2023-02-14T05:57:45.888Z,995.22
2023-02-14T05:58:29.783Z,995.12
2023-02-14T05:59:01.638Z,995.12
2023-02-14T05:59:33.542Z,995.22
2023-02-14T06:00:06.700Z,995.22
2023-02-14T06:00:39.324Z,995.12
2023-02-14T06:01:09.387Z,995.12
2023-02-14T06:01:41.428Z,995.12
2023-02-14T06:01:57.649Z,995.12
2023-02-14T06:02:41.586Z,995.12
2023-02-14T06:03:13.380Z,995.12
2023-02-14T06:03:45.528Z,995.22
2023-02-14T06:04:17.334Z,995.22
2023-02-14T06:04:49.453Z,995.22
2023-02-14T06:05:21.905Z,995.22
2023-02-14T06:05:53.232Z,995.22
2023-02-14T06:06:25.230Z,995.02
2023-02-14T06:06:57.251Z,995.02
2023-02-14T06:07:29.289Z,995.12
2023-02-14T06:08:01.315Z,995.12
2023-02-14T06:08:33.085Z,995.12
2023-02-14T06:09:05.361Z,995.12
2023-02-14T06:09:37.182Z,995.22
2023-02-14T06:10:09.287Z,995.22
2023-02-14T06:10:41.090Z,995.02
2023-02-14T06:10:57.739Z,995.02
2023-02-14T06:11:28.935Z,995.02
2023-02-14T06:11:45.221Z,995.02
2023-02-14T06:12:16.946Z,995.02
2023-02-14T06:12:48.917Z,995.12
2023-02-14T06:13:21.020Z,995.33
2023-02-14T06:13:52.973Z,995.33
2023-02-14T06:14:24.891Z,995.12
2023-02-14T06:14:56.934Z,995.12
2023-02-14T06:15:29.466Z,995.22
2023-02-14T06:16:01.166Z,995.22
2023-02-14T06:16:32.856Z,995.33
2023-02-14T06:17:05.154Z,995.33
2023-02-14T06:17:36.953Z,995.12
2023-02-14T06:18:08.819Z,995.12
2023-02-14T06:18:40.655Z,995.33
2023-02-14T06:18:56.808Z,995.33
2023-02-14T06:19:40.685Z,995.12
2023-02-14T06:20:15.928Z,995.12
2023-02-14T06:20:44.977Z,995.33
2023-02-14T06:21:16.597Z,995.33
2023-02-14T06:21:48.569Z,995.22
2023-02-14T06:22:20.763Z,995.22
2023-02-14T06:22:52.732Z,995.22
2023-02-14T06:23:24.538Z,995.22
2023-02-14T06:23:56.603Z,995.22
2023-02-14T06:24:12.674Z,995.22
2023-02-14T06:24:56.576Z,995.33
2023-02-14T06:25:28.850Z,995.02
2023-02-14T06:26:00.470Z,995.02
2023-02-14T06:26:32.351Z,995.22
2023-02-14T06:27:04.805Z,995.22
2023-02-14T06:27:36.650Z,995.33
2023-02-14T06:28:08.354Z,995.33
2023-02-14T06:28:40.334Z,995.02
2023-02-14T06:29:12.409Z,995.02
2023-02-14T06:29:44.562Z,995.33